sensor_id;sensor_type;location;lat;lon;timestamp;P1;durP1;ratioP1;P2;durP2;ratioP2
77868;SDS011;67231;59.144;37.934;2023-03-31T04:17:28;4.50;;;2.50;;
77868;SDS011;67231;59.144;37.934;2023-03-31T04:20:10;4.07;;;2.35;;
77868;SDS011;67231;59.144;37.934;2023-03-31T04:22:38;3.75;;;2.30;;
77868;SDS011;67231;59.144;37.934;2023-03-31T04:25:07;3.90;;;2.20;;
77868;SDS011;67231;59.144;37.934;2023-03-31T04:27:45;3.13;;;1.95;;
77868;SDS011;67231;59.144;37.934;2023-03-31T04:30:15;3.05;;;1.80;;
77868;SDS011;67231;59.144;37.934;2023-03-31T04:32:48;2.95;;;1.67;;
77868;SDS011;67231;59.144;37.934;2023-03-31T04:35:20;3.30;;;1.80;;
77868;SDS011;67231;59.144;37.934;2023-03-31T04:37:48;2.92;;;1.70;;
77868;SDS011;67231;59.144;37.934;2023-03-31T04:42:50;2.55;;;1.60;;
77868;SDS011;67231;59.144;37.934;2023-03-31T04:45:16;3.58;;;1.75;;
77868;SDS011;67231;59.144;37.934;2023-03-31T04:47:43;3.10;;;1.70;;
77868;SDS011;67231;59.144;37.934;2023-03-31T04:50:09;3.05;;;1.80;;
77868;SDS011;67231;59.144;37.934;2023-03-31T04:52:36;2.63;;;1.80;;
77868;SDS011;67231;59.144;37.934;2023-03-31T04:55:03;5.82;;;1.80;;
77868;SDS011;67231;59.144;37.934;2023-03-31T04:57:30;3.33;;;2.00;;
77868;SDS011;67231;59.144;37.934;2023-03-31T04:59:56;2.85;;;1.80;;
77868;SDS011;67231;59.144;37.934;2023-03-31T05:02:23;3.70;;;1.90;;
77868;SDS011;67231;59.144;37.934;2023-03-31T05:04:49;2.70;;;1.70;;
77868;SDS011;67231;59.144;37.934;2023-03-31T05:07:16;3.30;;;1.45;;
77868;SDS011;67231;59.144;37.934;2023-03-31T05:09:44;2.65;;;1.70;;
77868;SDS011;67231;59.144;37.934;2023-03-31T05:12:11;3.05;;;1.70;;
77868;SDS011;67231;59.144;37.934;2023-03-31T05:14:37;2.90;;;1.70;;
77868;SDS011;67231;59.144;37.934;2023-03-31T05:17:03;2.67;;;1.58;;
77868;SDS011;67231;59.144;37.934;2023-03-31T05:19:30;5.28;;;3.28;;
77868;SDS011;67231;59.144;37.934;2023-03-31T05:21:56;7.85;;;4.18;;
77868;SDS011;67231;59.144;37.934;2023-03-31T05:24:23;2.50;;;1.48;;
77868;SDS011;67231;59.144;37.934;2023-03-31T05:26:49;2.97;;;1.52;;
77868;SDS011;67231;59.144;37.934;2023-03-31T05:29:19;2.33;;;1.63;;
77868;SDS011;67231;59.144;37.934;2023-03-31T05:31:45;2.45;;;1.50;;
77868;SDS011;67231;59.144;37.934;2023-03-31T05:34:12;2.75;;;1.80;;
77868;SDS011;67231;59.144;37.934;2023-03-31T05:36:39;2.72;;;1.40;;
77868;SDS011;67231;59.144;37.934;2023-03-31T05:39:08;2.47;;;1.45;;
77868;SDS011;67231;59.144;37.934;2023-03-31T05:41:34;7.07;;;3.75;;
77868;SDS011;67231;59.144;37.934;2023-03-31T05:44:00;80.93;;;22.48;;
77868;SDS011;67231;59.144;37.934;2023-03-31T05:46:27;6.15;;;3.25;;
77868;SDS011;67231;59.144;37.934;2023-03-31T05:48:53;6.65;;;3.30;;
77868;SDS011;67231;59.144;37.934;2023-03-31T05:51:21;17.50;;;8.30;;
77868;SDS011;67231;59.144;37.934;2023-03-31T05:53:47;4.45;;;2.53;;
77868;SDS011;67231;59.144;37.934;2023-03-31T05:56:14;9.43;;;6.10;;
77868;SDS011;67231;59.144;37.934;2023-03-31T05:58:40;4.97;;;2.83;;
77868;SDS011;67231;59.144;37.934;2023-03-31T06:01:08;4.55;;;2.50;;
77868;SDS011;67231;59.144;37.934;2023-03-31T06:03:37;4.88;;;2.42;;
77868;SDS011;67231;59.144;37.934;2023-03-31T06:06:08;3.97;;;2.33;;
77868;SDS011;67231;59.144;37.934;2023-03-31T06:08:35;4.10;;;2.30;;
77868;SDS011;67231;59.144;37.934;2023-03-31T06:11:06;5.38;;;2.60;;
77868;SDS011;67231;59.144;37.934;2023-03-31T06:13:34;4.82;;;2.70;;
77868;SDS011;67231;59.144;37.934;2023-03-31T06:16:01;4.32;;;2.60;;
77868;SDS011;67231;59.144;37.934;2023-03-31T06:18:28;5.13;;;2.83;;
77868;SDS011;67231;59.144;37.934;2023-03-31T06:20:56;5.88;;;3.30;;
77868;SDS011;67231;59.144;37.934;2023-03-31T06:23:22;13.13;;;5.43;;
77868;SDS011;67231;59.144;37.934;2023-03-31T06:25:49;6.85;;;3.40;;
77868;SDS011;67231;59.144;37.934;2023-03-31T06:28:16;8.55;;;4.40;;
77868;SDS011;67231;59.144;37.934;2023-03-31T06:30:42;15.90;;;6.35;;
77868;SDS011;67231;59.144;37.934;2023-03-31T06:33:08;21.27;;;7.68;;
77868;SDS011;67231;59.144;37.934;2023-03-31T06:35:37;8.98;;;4.28;;
77868;SDS011;67231;59.144;37.934;2023-03-31T06:38:04;6.03;;;3.33;;
77868;SDS011;67231;59.144;37.934;2023-03-31T06:40:31;3.45;;;2.40;;
77868;SDS011;67231;59.144;37.934;2023-03-31T06:42:57;4.93;;;2.60;;
77868;SDS011;67231;59.144;37.934;2023-03-31T06:45:23;5.97;;;2.63;;
77868;SDS011;67231;59.144;37.934;2023-03-31T06:47:50;6.43;;;4.22;;
77868;SDS011;67231;59.144;37.934;2023-03-31T06:50:16;13.00;;;5.10;;
77868;SDS011;67231;59.144;37.934;2023-03-31T06:52:42;4.10;;;2.45;;
77868;SDS011;67231;59.144;37.934;2023-03-31T06:55:08;7.68;;;2.70;;
77868;SDS011;67231;59.144;37.934;2023-03-31T06:57:35;6.03;;;3.20;;
77868;SDS011;67231;59.144;37.934;2023-03-31T07:00:02;6.15;;;2.70;;
77868;SDS011;67231;59.144;37.934;2023-03-31T07:02:30;3.83;;;2.47;;
77868;SDS011;67231;59.144;37.934;2023-03-31T07:04:56;5.57;;;2.55;;
77868;SDS011;67231;59.144;37.934;2023-03-31T07:07:22;5.82;;;2.90;;
77868;SDS011;67231;59.144;37.934;2023-03-31T07:09:48;7.35;;;3.50;;
77868;SDS011;67231;59.144;37.934;2023-03-31T07:12:14;5.72;;;3.33;;
77868;SDS011;67231;59.144;37.934;2023-03-31T07:14:41;6.70;;;3.95;;
77868;SDS011;67231;59.144;37.934;2023-03-31T07:17:07;6.57;;;3.42;;
77868;SDS011;67231;59.144;37.934;2023-03-31T07:19:33;8.10;;;3.60;;
77868;SDS011;67231;59.144;37.934;2023-03-31T07:22:02;5.35;;;3.30;;
77868;SDS011;67231;59.144;37.934;2023-03-31T07:24:28;6.70;;;3.90;;
77868;SDS011;67231;59.144;37.934;2023-03-31T07:26:55;7.63;;;3.72;;
77868;SDS011;67231;59.144;37.934;2023-03-31T07:29:21;8.07;;;4.15;;
77868;SDS011;67231;59.144;37.934;2023-03-31T07:31:48;5.18;;;3.35;;
77868;SDS011;67231;59.144;37.934;2023-03-31T07:34:14;6.95;;;4.40;;
77868;SDS011;67231;59.144;37.934;2023-03-31T07:36:40;6.10;;;3.90;;
77868;SDS011;67231;59.144;37.934;2023-03-31T07:39:06;7.72;;;4.15;;
77868;SDS011;67231;59.144;37.934;2023-03-31T07:41:33;4.45;;;3.22;;
77868;SDS011;67231;59.144;37.934;2023-03-31T07:43:59;4.40;;;2.80;;
77868;SDS011;67231;59.144;37.934;2023-03-31T07:46:27;4.13;;;2.65;;
77868;SDS011;67231;59.144;37.934;2023-03-31T07:48:54;4.63;;;3.00;;
77868;SDS011;67231;59.144;37.934;2023-03-31T07:51:23;6.82;;;3.17;;
77868;SDS011;67231;59.144;37.934;2023-03-31T07:56:18;4.80;;;2.78;;
77868;SDS011;67231;59.144;37.934;2023-03-31T07:58:46;5.38;;;2.83;;
77868;SDS011;67231;59.144;37.934;2023-03-31T08:01:16;3.45;;;2.60;;
77868;SDS011;67231;59.144;37.934;2023-03-31T08:03:44;4.25;;;2.40;;
77868;SDS011;67231;59.144;37.934;2023-03-31T08:06:16;4.85;;;3.10;;
77868;SDS011;67231;59.144;37.934;2023-03-31T08:08:44;6.05;;;3.15;;
77868;SDS011;67231;59.144;37.934;2023-03-31T08:11:10;6.85;;;3.33;;
77868;SDS011;67231;59.144;37.934;2023-03-31T08:13:37;4.88;;;2.88;;
77868;SDS011;67231;59.144;37.934;2023-03-31T08:16:03;4.85;;;2.92;;
77868;SDS011;67231;59.144;37.934;2023-03-31T08:18:29;6.88;;;2.90;;
77868;SDS011;67231;59.144;37.934;2023-03-31T08:20:55;4.43;;;2.70;;
77868;SDS011;67231;59.144;37.934;2023-03-31T08:23:21;5.80;;;3.28;;
77868;SDS011;67231;59.144;37.934;2023-03-31T08:25:48;3.83;;;2.88;;
77868;SDS011;67231;59.144;37.934;2023-03-31T08:28:14;8.63;;;3.30;;
77868;SDS011;67231;59.144;37.934;2023-03-31T08:30:40;4.65;;;3.30;;
77868;SDS011;67231;59.144;37.934;2023-03-31T08:33:07;4.50;;;2.90;;
77868;SDS011;67231;59.144;37.934;2023-03-31T08:35:34;6.00;;;3.38;;
77868;SDS011;67231;59.144;37.934;2023-03-31T08:38:00;7.55;;;3.60;;
77868;SDS011;67231;59.144;37.934;2023-03-31T08:40:27;6.78;;;3.45;;
77868;SDS011;67231;59.144;37.934;2023-03-31T08:43:05;5.22;;;3.58;;
77868;SDS011;67231;59.144;37.934;2023-03-31T08:45:38;8.95;;;3.83;;
77868;SDS011;67231;59.144;37.934;2023-03-31T08:48:13;5.75;;;3.00;;
77868;SDS011;67231;59.144;37.934;2023-03-31T08:50:57;7.88;;;3.45;;
77868;SDS011;67231;59.144;37.934;2023-03-31T08:53:35;8.02;;;3.17;;
77868;SDS011;67231;59.144;37.934;2023-03-31T08:56:08;6.20;;;3.25;;
77868;SDS011;67231;59.144;37.934;2023-03-31T08:58:42;9.93;;;3.80;;
77868;SDS011;67231;59.144;37.934;2023-03-31T09:04:16;12.07;;;4.63;;
77868;SDS011;67231;59.144;37.934;2023-03-31T09:12:34;7.93;;;3.75;;
77868;SDS011;67231;59.144;37.934;2023-03-31T09:15:26;6.70;;;3.30;;
77868;SDS011;67231;59.144;37.934;2023-03-31T09:18:16;7.25;;;3.15;;
77868;SDS011;67231;59.144;37.934;2023-03-31T09:20:55;8.23;;;3.20;;
77868;SDS011;67231;59.144;37.934;2023-03-31T09:23:34;12.75;;;4.75;;
77868;SDS011;67231;59.144;37.934;2023-03-31T09:26:07;9.45;;;3.70;;
77868;SDS011;67231;59.144;37.934;2023-03-31T09:28:51;5.90;;;2.97;;
77868;SDS011;67231;59.144;37.934;2023-03-31T09:31:22;6.63;;;3.55;;
77868;SDS011;67231;59.144;37.934;2023-03-31T09:33:49;5.88;;;3.00;;
77868;SDS011;67231;59.144;37.934;2023-03-31T09:36:19;5.68;;;3.08;;
77868;SDS011;67231;59.144;37.934;2023-03-31T09:38:49;8.07;;;3.15;;
77868;SDS011;67231;59.144;37.934;2023-03-31T09:41:16;6.22;;;3.30;;
77868;SDS011;67231;59.144;37.934;2023-03-31T09:43:46;5.88;;;3.13;;
77868;SDS011;67231;59.144;37.934;2023-03-31T09:46:15;4.93;;;2.63;;
77868;SDS011;67231;59.144;37.934;2023-03-31T09:49:08;7.95;;;3.17;;
77868;SDS011;67231;59.144;37.934;2023-03-31T09:51:37;6.15;;;2.90;;
77868;SDS011;67231;59.144;37.934;2023-03-31T09:54:18;5.20;;;2.85;;
77868;SDS011;67231;59.144;37.934;2023-03-31T09:56:51;4.82;;;2.50;;
77868;SDS011;67231;59.144;37.934;2023-03-31T10:01:51;7.18;;;3.22;;
77868;SDS011;67231;59.144;37.934;2023-03-31T10:04:24;5.68;;;2.72;;
77868;SDS011;67231;59.144;37.934;2023-03-31T10:06:53;9.38;;;3.42;;
77868;SDS011;67231;59.144;37.934;2023-03-31T10:09:23;5.82;;;2.60;;
77868;SDS011;67231;59.144;37.934;2023-03-31T10:11:53;10.40;;;3.42;;
77868;SDS011;67231;59.144;37.934;2023-03-31T10:14:27;7.32;;;3.10;;
77868;SDS011;67231;59.144;37.934;2023-03-31T10:17:04;8.85;;;3.42;;
77868;SDS011;67231;59.144;37.934;2023-03-31T10:19:33;7.75;;;2.95;;
77868;SDS011;67231;59.144;37.934;2023-03-31T10:22:11;7.00;;;3.20;;
77868;SDS011;67231;59.144;37.934;2023-03-31T10:24:42;12.63;;;3.90;;
77868;SDS011;67231;59.144;37.934;2023-03-31T10:27:21;6.68;;;2.95;;
77868;SDS011;67231;59.144;37.934;2023-03-31T10:29:51;11.50;;;3.78;;
77868;SDS011;67231;59.144;37.934;2023-03-31T10:32:31;9.25;;;4.80;;
77868;SDS011;67231;59.144;37.934;2023-03-31T10:35:04;14.20;;;5.78;;
77868;SDS011;67231;59.144;37.934;2023-03-31T10:37:33;14.05;;;6.22;;
77868;SDS011;67231;59.144;37.934;2023-03-31T10:40:12;9.70;;;5.10;;
77868;SDS011;67231;59.144;37.934;2023-03-31T10:42:43;13.02;;;4.35;;
77868;SDS011;67231;59.144;37.934;2023-03-31T10:45:25;5.32;;;3.17;;
77868;SDS011;67231;59.144;37.934;2023-03-31T10:47:54;5.80;;;2.95;;
77868;SDS011;67231;59.144;37.934;2023-03-31T10:50:33;5.50;;;2.63;;
77868;SDS011;67231;59.144;37.934;2023-03-31T10:53:05;7.88;;;3.05;;
77868;SDS011;67231;59.144;37.934;2023-03-31T11:01:35;6.30;;;3.50;;
77868;SDS011;67231;59.144;37.934;2023-03-31T11:12:37;10.68;;;2.78;;
77868;SDS011;67231;59.144;37.934;2023-03-31T11:15:24;5.68;;;2.63;;
77868;SDS011;67231;59.144;37.934;2023-03-31T11:18:38;11.10;;;3.72;;
77868;SDS011;67231;59.144;37.934;2023-03-31T11:27:00;11.75;;;2.38;;
77868;SDS011;67231;59.144;37.934;2023-03-31T11:29:49;4.18;;;2.30;;
77868;SDS011;67231;59.144;37.934;2023-03-31T11:41:10;4.45;;;2.17;;
77868;SDS011;67231;59.144;37.934;2023-03-31T11:43:45;4.78;;;1.90;;
77868;SDS011;67231;59.144;37.934;2023-03-31T11:46:22;6.80;;;2.50;;
77868;SDS011;67231;59.144;37.934;2023-03-31T11:53:51;9.35;;;2.78;;
77868;SDS011;67231;59.144;37.934;2023-03-31T11:56:21;6.30;;;3.22;;
77868;SDS011;67231;59.144;37.934;2023-03-31T11:58:55;13.60;;;3.00;;
77868;SDS011;67231;59.144;37.934;2023-03-31T12:01:26;8.02;;;4.15;;
77868;SDS011;67231;59.144;37.934;2023-03-31T12:04:53;9.93;;;5.43;;
77868;SDS011;67231;59.144;37.934;2023-03-31T12:07:07;7.78;;;3.60;;
77868;SDS011;67231;59.144;37.934;2023-03-31T12:12:44;6.07;;;2.72;;
77868;SDS011;67231;59.144;37.934;2023-03-31T12:15:30;7.85;;;3.58;;
77868;SDS011;67231;59.144;37.934;2023-03-31T12:18:14;9.60;;;4.65;;
77868;SDS011;67231;59.144;37.934;2023-03-31T12:20:58;10.45;;;2.75;;
77868;SDS011;67231;59.144;37.934;2023-03-31T12:23:29;8.93;;;2.92;;
77868;SDS011;67231;59.144;37.934;2023-03-31T12:26:10;10.40;;;3.42;;
77868;SDS011;67231;59.144;37.934;2023-03-31T12:28:49;13.65;;;3.60;;
77868;SDS011;67231;59.144;37.934;2023-03-31T12:31:21;7.88;;;2.80;;
77868;SDS011;67231;59.144;37.934;2023-03-31T12:33:56;7.00;;;3.58;;
77868;SDS011;67231;59.144;37.934;2023-03-31T12:39:28;6.97;;;2.80;;
77868;SDS011;67231;59.144;37.934;2023-03-31T12:42:32;6.35;;;2.72;;
77868;SDS011;67231;59.144;37.934;2023-03-31T12:45:20;14.48;;;2.88;;
77868;SDS011;67231;59.144;37.934;2023-03-31T12:55:46;5.70;;;1.90;;
77868;SDS011;67231;59.144;37.934;2023-03-31T13:01:01;4.10;;;2.30;;
77868;SDS011;67231;59.144;37.934;2023-03-31T13:09:00;8.18;;;2.70;;
77868;SDS011;67231;59.144;37.934;2023-03-31T13:11:35;4.57;;;2.30;;
77868;SDS011;67231;59.144;37.934;2023-03-31T13:16:51;11.20;;;2.80;;
77868;SDS011;67231;59.144;37.934;2023-03-31T13:19:36;5.35;;;2.50;;
77868;SDS011;67231;59.144;37.934;2023-03-31T13:22:06;7.45;;;2.78;;
77868;SDS011;67231;59.144;37.934;2023-03-31T13:24:52;4.05;;;2.58;;
77868;SDS011;67231;59.144;37.934;2023-03-31T13:55:53;3.97;;;1.73;;
77868;SDS011;67231;59.144;37.934;2023-03-31T14:01:30;3.85;;;1.63;;
77868;SDS011;67231;59.144;37.934;2023-03-31T14:06:51;3.47;;;1.30;;
77868;SDS011;67231;59.144;37.934;2023-03-31T14:12:00;4.07;;;1.90;;
77868;SDS011;67231;59.144;37.934;2023-03-31T14:14:43;2.65;;;1.48;;
77868;SDS011;67231;59.144;37.934;2023-03-31T14:17:09;1.58;;;1.15;;
77868;SDS011;67231;59.144;37.934;2023-03-31T14:22:47;4.05;;;1.50;;
77868;SDS011;67231;59.144;37.934;2023-03-31T14:28:43;6.18;;;1.63;;
77868;SDS011;67231;59.144;37.934;2023-03-31T14:31:25;6.30;;;2.03;;
77868;SDS011;67231;59.144;37.934;2023-03-31T14:39:32;3.10;;;1.60;;
77868;SDS011;67231;59.144;37.934;2023-03-31T14:42:03;4.55;;;1.65;;
77868;SDS011;67231;59.144;37.934;2023-03-31T14:44:32;2.78;;;1.38;;
77868;SDS011;67231;59.144;37.934;2023-03-31T14:46:59;3.08;;;1.45;;
77868;SDS011;67231;59.144;37.934;2023-03-31T14:49:34;4.70;;;1.50;;
77868;SDS011;67231;59.144;37.934;2023-03-31T14:52:04;4.22;;;1.80;;
77868;SDS011;67231;59.144;37.934;2023-03-31T14:54:48;4.18;;;1.45;;
77868;SDS011;67231;59.144;37.934;2023-03-31T14:57:18;5.13;;;1.70;;
77868;SDS011;67231;59.144;37.934;2023-03-31T14:59:48;6.05;;;1.73;;
77868;SDS011;67231;59.144;37.934;2023-03-31T15:02:19;7.35;;;2.97;;
77868;SDS011;67231;59.144;37.934;2023-03-31T15:04:56;12.18;;;4.80;;
77868;SDS011;67231;59.144;37.934;2023-03-31T15:07:22;3.45;;;1.50;;
77868;SDS011;67231;59.144;37.934;2023-03-31T15:09:49;6.15;;;1.60;;
77868;SDS011;67231;59.144;37.934;2023-03-31T15:12:16;2.67;;;1.50;;
77868;SDS011;67231;59.144;37.934;2023-03-31T15:14:46;3.22;;;1.48;;
77868;SDS011;67231;59.144;37.934;2023-03-31T15:17:22;4.90;;;1.48;;
77868;SDS011;67231;59.144;37.934;2023-03-31T15:22:22;6.53;;;1.70;;
77868;SDS011;67231;59.144;37.934;2023-03-31T15:24:51;3.60;;;1.60;;
77868;SDS011;67231;59.144;37.934;2023-03-31T15:27:22;8.55;;;1.90;;
77868;SDS011;67231;59.144;37.934;2023-03-31T15:30:17;5.97;;;2.00;;
77868;SDS011;67231;59.144;37.934;2023-03-31T15:32:46;9.52;;;3.05;;
77868;SDS011;67231;59.144;37.934;2023-03-31T15:35:18;6.60;;;3.00;;
77868;SDS011;67231;59.144;37.934;2023-03-31T15:37:56;5.57;;;3.08;;
77868;SDS011;67231;59.144;37.934;2023-03-31T15:40:24;9.27;;;2.90;;
77868;SDS011;67231;59.144;37.934;2023-03-31T15:43:05;7.90;;;3.10;;
77868;SDS011;67231;59.144;37.934;2023-03-31T15:48:29;7.45;;;2.75;;
77868;SDS011;67231;59.144;37.934;2023-03-31T15:51:00;7.97;;;3.30;;
77868;SDS011;67231;59.144;37.934;2023-03-31T15:53:34;11.88;;;3.78;;
77868;SDS011;67231;59.144;37.934;2023-03-31T15:56:02;3.78;;;2.00;;
77868;SDS011;67231;59.144;37.934;2023-03-31T16:01:20;7.75;;;2.47;;
77868;SDS011;67231;59.144;37.934;2023-03-31T16:03:51;6.05;;;2.78;;
77868;SDS011;67231;59.144;37.934;2023-03-31T16:11:27;5.68;;;2.30;;
77868;SDS011;67231;59.144;37.934;2023-03-31T16:14:04;6.32;;;2.60;;
77868;SDS011;67231;59.144;37.934;2023-03-31T16:16:36;7.63;;;2.95;;
77868;SDS011;67231;59.144;37.934;2023-03-31T16:19:07;11.85;;;3.00;;
77868;SDS011;67231;59.144;37.934;2023-03-31T16:21:44;14.77;;;3.30;;
77868;SDS011;67231;59.144;37.934;2023-03-31T16:24:20;7.28;;;3.35;;
77868;SDS011;67231;59.144;37.934;2023-03-31T16:27:02;10.13;;;3.50;;
77868;SDS011;67231;59.144;37.934;2023-03-31T16:34:56;6.28;;;2.83;;
77868;SDS011;67231;59.144;37.934;2023-03-31T16:37:24;8.00;;;2.42;;
77868;SDS011;67231;59.144;37.934;2023-03-31T16:39:51;4.93;;;2.22;;
77868;SDS011;67231;59.144;37.934;2023-03-31T16:42:17;6.60;;;3.03;;
77868;SDS011;67231;59.144;37.934;2023-03-31T16:44:44;7.18;;;2.60;;
77868;SDS011;67231;59.144;37.934;2023-03-31T16:47:11;12.88;;;2.90;;
77868;SDS011;67231;59.144;37.934;2023-03-31T16:49:38;5.78;;;2.22;;
77868;SDS011;67231;59.144;37.934;2023-03-31T16:52:05;6.95;;;2.55;;
77868;SDS011;67231;59.144;37.934;2023-03-31T16:54:33;5.88;;;2.38;;
77868;SDS011;67231;59.144;37.934;2023-03-31T16:57:00;6.45;;;2.30;;
77868;SDS011;67231;59.144;37.934;2023-03-31T16:59:28;7.53;;;3.00;;
77868;SDS011;67231;59.144;37.934;2023-03-31T17:01:54;30.58;;;7.93;;
77868;SDS011;67231;59.144;37.934;2023-03-31T17:04:20;23.58;;;7.82;;
77868;SDS011;67231;59.144;37.934;2023-03-31T17:06:48;26.65;;;7.95;;
77868;SDS011;67231;59.144;37.934;2023-03-31T17:09:14;46.30;;;17.10;;
77868;SDS011;67231;59.144;37.934;2023-03-31T17:11:40;42.88;;;16.33;;
77868;SDS011;67231;59.144;37.934;2023-03-31T17:14:06;40.65;;;16.10;;
77868;SDS011;67231;59.144;37.934;2023-03-31T17:16:35;49.70;;;19.60;;
77868;SDS011;67231;59.144;37.934;2023-03-31T17:19:01;47.17;;;18.73;;
77868;SDS011;67231;59.144;37.934;2023-03-31T17:21:28;49.60;;;17.67;;
77868;SDS011;67231;59.144;37.934;2023-03-31T17:23:54;51.85;;;18.35;;
77868;SDS011;67231;59.144;37.934;2023-03-31T17:26:22;45.83;;;17.65;;
77868;SDS011;67231;59.144;37.934;2023-03-31T17:28:48;47.13;;;16.88;;
77868;SDS011;67231;59.144;37.934;2023-03-31T17:31:17;38.35;;;14.63;;
77868;SDS011;67231;59.144;37.934;2023-03-31T17:36:11;24.33;;;8.85;;
77868;SDS011;67231;59.144;37.934;2023-03-31T17:38:38;15.85;;;5.38;;
77868;SDS011;67231;59.144;37.934;2023-03-31T17:41:05;54.03;;;14.30;;
77868;SDS011;67231;59.144;37.934;2023-03-31T17:43:32;36.17;;;10.75;;
77868;SDS011;67231;59.144;37.934;2023-03-31T17:46:00;33.53;;;9.00;;
77868;SDS011;67231;59.144;37.934;2023-03-31T17:48:32;56.08;;;15.55;;
77868;SDS011;67231;59.144;37.934;2023-03-31T17:51:06;54.28;;;15.68;;
77868;SDS011;67231;59.144;37.934;2023-03-31T17:53:34;35.83;;;10.63;;
77868;SDS011;67231;59.144;37.934;2023-03-31T17:56:01;71.03;;;19.70;;
77868;SDS011;67231;59.144;37.934;2023-03-31T17:58:29;44.80;;;12.73;;
77868;SDS011;67231;59.144;37.934;2023-03-31T18:00:55;25.73;;;8.15;;
77868;SDS011;67231;59.144;37.934;2023-03-31T18:03:21;15.20;;;5.50;;
77868;SDS011;67231;59.144;37.934;2023-03-31T18:05:48;15.75;;;4.70;;
77868;SDS011;67231;59.144;37.934;2023-03-31T18:08:14;10.82;;;3.90;;
77868;SDS011;67231;59.144;37.934;2023-03-31T18:10:40;12.15;;;4.95;;
77868;SDS011;67231;59.144;37.934;2023-03-31T18:13:07;12.98;;;4.82;;
77868;SDS011;67231;59.144;37.934;2023-03-31T18:15:34;11.48;;;5.15;;
77868;SDS011;67231;59.144;37.934;2023-03-31T18:18:01;11.40;;;4.43;;
77868;SDS011;67231;59.144;37.934;2023-03-31T18:20:27;10.82;;;4.50;;
77868;SDS011;67231;59.144;37.934;2023-03-31T18:22:53;13.95;;;4.90;;
77868;SDS011;67231;59.144;37.934;2023-03-31T18:25:20;8.05;;;3.85;;
77868;SDS011;67231;59.144;37.934;2023-03-31T18:27:46;12.07;;;4.57;;
77868;SDS011;67231;59.144;37.934;2023-03-31T18:30:13;14.02;;;5.38;;
77868;SDS011;67231;59.144;37.934;2023-03-31T18:32:40;12.73;;;6.15;;
77868;SDS011;67231;59.144;37.934;2023-03-31T18:35:06;23.50;;;9.68;;
77868;SDS011;67231;59.144;37.934;2023-03-31T18:37:33;16.70;;;7.03;;
77868;SDS011;67231;59.144;37.934;2023-03-31T18:39:59;14.80;;;7.13;;
77868;SDS011;67231;59.144;37.934;2023-03-31T18:42:26;13.77;;;5.45;;
77868;SDS011;67231;59.144;37.934;2023-03-31T18:44:52;20.40;;;8.65;;
77868;SDS011;67231;59.144;37.934;2023-03-31T18:47:18;29.70;;;13.73;;
77868;SDS011;67231;59.144;37.934;2023-03-31T18:49:45;40.78;;;16.42;;
77868;SDS011;67231;59.144;37.934;2023-03-31T18:52:18;37.03;;;15.63;;
77868;SDS011;67231;59.144;37.934;2023-03-31T18:54:44;39.75;;;17.60;;
77868;SDS011;67231;59.144;37.934;2023-03-31T18:57:11;40.22;;;17.38;;
77868;SDS011;67231;59.144;37.934;2023-03-31T18:59:37;46.72;;;19.75;;
77868;SDS011;67231;59.144;37.934;2023-03-31T19:02:03;37.70;;;15.63;;
77868;SDS011;67231;59.144;37.934;2023-03-31T19:04:29;33.80;;;13.50;;
77868;SDS011;67231;59.144;37.934;2023-03-31T19:06:55;35.25;;;13.60;;
77868;SDS011;67231;59.144;37.934;2023-03-31T19:09:22;38.40;;;14.27;;
77868;SDS011;67231;59.144;37.934;2023-03-31T19:11:51;54.72;;;18.33;;
77868;SDS011;67231;59.144;37.934;2023-03-31T19:14:17;47.22;;;18.17;;
77868;SDS011;67231;59.144;37.934;2023-03-31T19:16:44;24.80;;;10.10;;
77868;SDS011;67231;59.144;37.934;2023-03-31T19:19:10;20.17;;;7.88;;
77868;SDS011;67231;59.144;37.934;2023-03-31T19:21:36;39.47;;;13.50;;
77868;SDS011;67231;59.144;37.934;2023-03-31T19:24:03;19.92;;;8.27;;
77868;SDS011;67231;59.144;37.934;2023-03-31T19:26:30;15.25;;;6.68;;
77868;SDS011;67231;59.144;37.934;2023-03-31T19:28:56;21.60;;;8.57;;
77868;SDS011;67231;59.144;37.934;2023-03-31T19:31:23;20.80;;;7.82;;
77868;SDS011;67231;59.144;37.934;2023-03-31T19:33:49;19.05;;;8.27;;
77868;SDS011;67231;59.144;37.934;2023-03-31T19:36:16;20.90;;;9.05;;
77868;SDS011;67231;59.144;37.934;2023-03-31T19:38:42;19.42;;;8.73;;
77868;SDS011;67231;59.144;37.934;2023-03-31T19:41:08;19.45;;;9.50;;
77868;SDS011;67231;59.144;37.934;2023-03-31T19:43:35;19.17;;;9.35;;
77868;SDS011;67231;59.144;37.934;2023-03-31T19:46:01;19.83;;;9.15;;
77868;SDS011;67231;59.144;37.934;2023-03-31T19:48:28;54.47;;;18.67;;
77868;SDS011;67231;59.144;37.934;2023-03-31T19:50:58;44.33;;;15.48;;
77868;SDS011;67231;59.144;37.934;2023-03-31T19:53:26;29.13;;;12.85;;
77868;SDS011;67231;59.144;37.934;2023-03-31T19:55:53;42.88;;;14.07;;
77868;SDS011;67231;59.144;37.934;2023-03-31T19:58:21;40.90;;;14.07;;
77868;SDS011;67231;59.144;37.934;2023-03-31T20:00:49;28.88;;;10.85;;
77868;SDS011;67231;59.144;37.934;2023-03-31T20:03:17;57.70;;;18.15;;
77868;SDS011;67231;59.144;37.934;2023-03-31T20:05:44;34.65;;;11.77;;
77868;SDS011;67231;59.144;37.934;2023-03-31T20:08:10;21.58;;;8.07;;
77868;SDS011;67231;59.144;37.934;2023-03-31T20:10:37;14.18;;;6.65;;
77868;SDS011;67231;59.144;37.934;2023-03-31T20:13:05;15.98;;;6.55;;
77868;SDS011;67231;59.144;37.934;2023-03-31T20:15:32;19.00;;;7.68;;
77868;SDS011;67231;59.144;37.934;2023-03-31T20:17:59;22.60;;;8.98;;
77868;SDS011;67231;59.144;37.934;2023-03-31T20:20:25;17.30;;;6.85;;
77868;SDS011;67231;59.144;37.934;2023-03-31T20:22:52;26.13;;;8.85;;
77868;SDS011;67231;59.144;37.934;2023-03-31T20:25:19;17.55;;;6.70;;
77868;SDS011;67231;59.144;37.934;2023-03-31T20:27:45;14.80;;;6.28;;
77868;SDS011;67231;59.144;37.934;2023-03-31T20:30:12;15.88;;;6.93;;
77868;SDS011;67231;59.144;37.934;2023-03-31T20:32:38;18.80;;;7.90;;
77868;SDS011;67231;59.144;37.934;2023-03-31T20:35:05;18.65;;;7.68;;
77868;SDS011;67231;59.144;37.934;2023-03-31T20:37:32;28.55;;;10.55;;
77868;SDS011;67231;59.144;37.934;2023-03-31T20:39:58;17.40;;;7.80;;
77868;SDS011;67231;59.144;37.934;2023-03-31T20:42:24;18.98;;;6.55;;
77868;SDS011;67231;59.144;37.934;2023-03-31T20:44:51;16.08;;;6.53;;
77868;SDS011;67231;59.144;37.934;2023-03-31T20:47:18;12.13;;;6.40;;
77868;SDS011;67231;59.144;37.934;2023-03-31T20:49:44;14.07;;;6.43;;
77868;SDS011;67231;59.144;37.934;2023-03-31T20:52:11;16.02;;;6.97;;
77868;SDS011;67231;59.144;37.934;2023-03-31T20:54:37;14.20;;;5.72;;
77868;SDS011;67231;59.144;37.934;2023-03-31T20:57:03;14.45;;;6.18;;
77868;SDS011;67231;59.144;37.934;2023-03-31T20:59:32;15.10;;;6.35;;
77868;SDS011;67231;59.144;37.934;2023-03-31T21:01:58;20.48;;;8.43;;
77868;SDS011;67231;59.144;37.934;2023-03-31T21:04:25;19.27;;;8.18;;
77868;SDS011;67231;59.144;37.934;2023-03-31T21:06:52;19.77;;;8.20;;
77868;SDS011;67231;59.144;37.934;2023-03-31T21:09:18;16.52;;;7.75;;
77868;SDS011;67231;59.144;37.934;2023-03-31T21:11:44;20.00;;;8.38;;
77868;SDS011;67231;59.144;37.934;2023-03-31T21:14:12;21.17;;;8.82;;
77868;SDS011;67231;59.144;37.934;2023-03-31T21:16:39;18.52;;;7.80;;
77868;SDS011;67231;59.144;37.934;2023-03-31T21:19:05;20.08;;;8.95;;
77868;SDS011;67231;59.144;37.934;2023-03-31T21:21:31;20.30;;;8.75;;
77868;SDS011;67231;59.144;37.934;2023-03-31T21:23:59;16.23;;;7.70;;
77868;SDS011;67231;59.144;37.934;2023-03-31T21:26:26;15.27;;;6.75;;